Time;durP1;ratioP1;P1;durP2;ratioP2;P2;SDS_P1;SDS_P2;PMS_P1;PMS_P2;Temp;Humidity;BMP_temperature;BMP_pressure;BME280_temperature;BME280_humidity;BME280_pressure;Samples;Min_cycle;Max_cycle;Signal;HPM_P1;HPM_P2
2022/04/16 00:02:12;;;;;;;19.20;9.90;;;;;;;;;;5054930;28;20056;-75
2022/04/16 00:04:41;;;;;;;13.80;9.18;;;;;;;;;;5037363;28;20044;-74
2022/04/16 00:07:07;;;;;;;13.90;9.55;;;;;;;;;;5072661;28;20057;-74
2022/04/16 00:09:33;;;;;;;13.15;8.95;;;;;;;;;;5071251;28;20403;-75
2022/04/16 00:11:59;;;;;;;12.45;8.65;;;;;;;;;;5054598;28;20037;-74
2022/04/16 00:14:25;;;;;;;19.02;10.80;;;;;;;;;;5072456;28;20131;-73
2022/04/16 00:16:51;;;;;;;14.73;9.30;;;;;;;;;;5053087;28;20059;-74
2022/04/16 00:19:19;;;;;;;17.20;9.65;;;;;;;;;;5054023;28;20045;-74
2022/04/16 00:21:45;;;;;;;16.52;10.63;;;;;;;;;;5038375;28;20052;-72
2022/04/16 00:24:11;;;;;;;16.50;10.05;;;;;;;;;;5054948;28;20051;-72
2022/04/16 00:26:40;;;;;;;15.18;9.38;;;;;;;;;;5037996;28;20057;-72
2022/04/16 00:29:06;;;;;;;15.60;9.60;;;;;;;;;;5045475;28;20044;-72
2022/04/16 00:31:32;;;;;;;14.25;8.65;;;;;;;;;;5072290;28;20116;-73
2022/04/16 00:33:58;;;;;;;15.90;9.77;;;;;;;;;;5038258;28;20044;-73
2022/04/16 00:36:24;;;;;;;12.82;9.50;;;;;;;;;;5054954;28;20436;-75
2022/04/16 00:38:50;;;;;;;14.70;10.23;;;;;;;;;;5063599;28;20508;-74
2022/04/16 00:41:16;;;;;;;16.73;9.50;;;;;;;;;;5055125;28;20144;-73
2022/04/16 00:43:42;;;;;;;14.65;8.80;;;;;;;;;;5071458;28;20353;-74
2022/04/16 00:46:08;;;;;;;13.20;8.88;;;;;;;;;;5054493;28;20048;-75
2022/04/16 00:48:34;;;;;;;15.10;9.55;;;;;;;;;;5053539;28;20044;-74
2022/04/16 00:51:00;;;;;;;17.52;10.07;;;;;;;;;;5063195;28;20041;-74
2022/04/16 00:53:29;;;;;;;18.33;10.25;;;;;;;;;;5054211;28;20043;-74
2022/04/16 00:55:57;;;;;;;16.58;10.25;;;;;;;;;;5093332;22;20135;-73
2022/04/16 00:58:48;;;;;;;13.65;9.50;;;;;;;;;;5091661;22;21199;-75
2022/04/16 01:01:14;;;;;;;17.23;10.88;;;;;;;;;;5009717;28;20050;-74
2022/04/16 01:03:43;;;;;;;16.55;10.75;;;;;;;;;;5014292;28;20057;-74
2022/04/16 01:06:15;;;;;;;16.23;9.80;;;;;;;;;;4997965;28;20049;-77
2022/04/16 01:08:44;;;;;;;16.77;11.10;;;;;;;;;;4998318;28;20060;-75
2022/04/16 01:11:10;;;;;;;16.73;10.43;;;;;;;;;;5013090;28;20137;-74
2022/04/16 01:13:37;;;;;;;16.45;10.63;;;;;;;;;;5014935;28;20440;-72
2022/04/16 01:16:04;;;;;;;17.77;10.57;;;;;;;;;;5032094;28;20045;-73
2022/04/16 01:18:30;;;;;;;14.77;9.57;;;;;;;;;;5009929;28;20048;-73
2022/04/16 01:20:56;;;;;;;15.77;10.20;;;;;;;;;;5013758;28;20053;-71
2022/04/16 01:23:22;;;;;;;14.88;10.50;;;;;;;;;;5014753;28;20049;-72
2022/04/16 01:25:48;;;;;;;17.30;10.93;;;;;;;;;;5014684;28;20095;-72
2022/04/16 01:28:14;;;;;;;16.55;11.00;;;;;;;;;;5013351;28;20038;-72
2022/04/16 01:30:40;;;;;;;17.50;10.68;;;;;;;;;;5000101;28;20033;-74
2022/04/16 01:33:06;;;;;;;17.77;10.63;;;;;;;;;;5002229;28;20046;-75
2022/04/16 01:35:32;;;;;;;18.35;11.00;;;;;;;;;;5012530;28;20413;-75
2022/04/16 01:37:58;;;;;;;17.38;11.00;;;;;;;;;;5032142;28;20041;-74
2022/04/16 01:40:25;;;;;;;15.65;10.30;;;;;;;;;;5017912;28;20512;-72
2022/04/16 01:42:56;;;;;;;16.80;10.27;;;;;;;;;;5017888;28;20095;-72
2022/04/16 01:45:23;;;;;;;17.52;11.00;;;;;;;;;;5035490;28;20060;-74
2022/04/16 01:47:50;;;;;;;20.40;12.25;;;;;;;;;;5032620;28;20047;-71
2022/04/16 01:50:18;;;;;;;18.05;11.40;;;;;;;;;;5017534;28;20132;-73
2022/04/16 01:52:44;;;;;;;17.27;11.02;;;;;;;;;;5017734;28;20072;-72
2022/04/16 01:55:12;;;;;;;16.88;10.32;;;;;;;;;;5033155;28;20045;-76
2022/04/16 01:57:38;;;;;;;22.50;11.60;;;;;;;;;;5010947;28;20120;-72
2022/04/16 02:00:08;;;;;;;16.05;11.68;;;;;;;;;;5016873;28;20413;-74
2022/04/16 02:02:36;;;;;;;19.73;12.00;;;;;;;;;;5017494;28;20477;-73
2022/04/16 02:05:03;;;;;;;18.27;11.50;;;;;;;;;;5033015;28;20053;-73
2022/04/16 02:07:29;;;;;;;18.67;11.70;;;;;;;;;;5031760;28;20081;-72
2022/04/16 02:09:56;;;;;;;16.25;11.43;;;;;;;;;;5017336;28;20074;-72
2022/04/16 02:12:22;;;;;;;16.10;11.15;;;;;;;;;;5001068;28;20053;-74
2022/04/16 02:14:48;;;;;;;20.33;12.50;;;;;;;;;;5016721;28;20041;-72
2022/04/16 02:17:14;;;;;;;22.73;13.35;;;;;;;;;;5030118;28;20042;-72
2022/04/16 02:19:41;;;;;;;22.33;13.70;;;;;;;;;;5017304;28;20049;-73
2022/04/16 02:22:07;;;;;;;21.55;12.85;;;;;;;;;;5000022;28;20132;-72
2022/04/16 02:24:33;;;;;;;23.33;14.60;;;;;;;;;;5000397;28;20111;-74
2022/04/16 02:27:00;;;;;;;27.17;17.10;;;;;;;;;;5030203;28;20037;-73
2022/04/16 02:29:26;;;;;;;30.58;17.27;;;;;;;;;;5034200;28;20049;-73
2022/04/16 02:31:53;;;;;;;29.80;16.88;;;;;;;;;;5016702;28;20044;-73
2022/04/16 02:34:20;;;;;;;26.60;16.38;;;;;;;;;;5000396;28;20059;-72
2022/04/16 02:36:49;;;;;;;28.67;17.13;;;;;;;;;;4996124;28;20085;-72
2022/04/16 02:39:15;;;;;;;28.70;19.40;;;;;;;;;;5007151;28;20111;-72
2022/04/16 02:41:42;;;;;;;31.02;19.23;;;;;;;;;;5015978;28;20037;-72
2022/04/16 02:47:05;;;;;;;36.08;20.05;;;;;;;;;;5015370;28;20057;-75
2022/04/16 02:47:06;;;;;;;33.63;19.13;;;;;;;;;;5026382;28;20052;-72
2022/04/16 02:49:34;;;;;;;33.17;18.92;;;;;;;;;;5025877;28;20045;-73
2022/04/16 02:52:00;;;;;;;35.80;21.05;;;;;;;;;;5015951;28;20053;-73
2022/04/16 02:54:26;;;;;;;31.63;19.55;;;;;;;;;;5016377;28;20072;-72
2022/04/16 02:56:54;;;;;;;38.00;20.73;;;;;;;;;;5010476;28;20485;-72
2022/04/16 02:59:20;;;;;;;37.83;20.70;;;;;;;;;;4991535;28;20409;-73
2022/04/16 03:01:48;;;;;;;36.70;20.63;;;;;;;;;;4998568;28;20503;-72
2022/04/16 03:04:15;;;;;;;32.58;20.48;;;;;;;;;;4999964;28;20136;-71
2022/04/16 03:06:40;;;;;;;33.70;21.13;;;;;;;;;;5001276;28;20108;-75
2022/04/16 03:09:08;;;;;;;40.92;22.02;;;;;;;;;;4984471;28;20041;-71
2022/04/16 03:11:35;;;;;;;35.95;21.30;;;;;;;;;;5015114;28;20050;-71
2022/04/16 03:17:31;;;;;;;34.53;21.75;;;;;;;;;;4997008;28;20053;-74
2022/04/16 03:19:33;;;;;;;39.63;24.27;;;;;;;;;;5019735;28;20085;-76
2022/04/16 03:21:59;;;;;;;40.80;22.10;;;;;;;;;;5033725;28;20088;-74
2022/04/16 03:24:26;;;;;;;38.40;21.17;;;;;;;;;;5033504;28;20462;-72
2022/04/16 03:26:53;;;;;;;36.65;24.02;;;;;;;;;;5009891;28;20084;-75
2022/04/16 03:29:19;;;;;;;43.05;22.95;;;;;;;;;;5029620;28;20057;-73
2022/04/16 03:31:45;;;;;;;40.20;23.08;;;;;;;;;;4999611;28;20064;-74
2022/04/16 03:36:59;;;;;;;43.15;23.77;;;;;;;;;;5075480;22;20063;-73
2022/04/16 03:39:25;;;;;;;45.47;24.92;;;;;;;;;;5105110;22;20065;-72
2022/04/16 03:41:51;;;;;;;42.30;22.48;;;;;;;;;;5054583;28;20454;-73
2022/04/16 03:44:18;;;;;;;40.35;22.02;;;;;;;;;;5054570;28;20052;-73
2022/04/16 03:46:44;;;;;;;44.20;23.27;;;;;;;;;;5085679;22;20053;-74
2022/04/16 03:49:10;;;;;;;37.47;22.52;;;;;;;;;;5061468;28;20131;-72
2022/04/16 03:51:36;;;;;;;41.05;23.25;;;;;;;;;;5059676;28;20131;-72
2022/04/16 04:02:16;;;;;;;40.63;22.15;;;;;;;;;;5054885;28;20381;-74
2022/04/16 04:04:43;;;;;;;36.17;21.45;;;;;;;;;;5072715;28;20043;-73
2022/04/16 04:07:10;;;;;;;33.45;21.48;;;;;;;;;;5068034;28;20093;-74
2022/04/16 04:09:38;;;;;;;37.08;21.77;;;;;;;;;;5043955;28;20086;-72
2022/04/16 04:12:06;;;;;;;37.42;21.38;;;;;;;;;;5035102;28;20047;-72
2022/04/16 04:14:32;;;;;;;37.55;22.20;;;;;;;;;;5026691;28;20056;-72
2022/04/16 04:16:58;;;;;;;35.53;21.23;;;;;;;;;;5054844;28;20050;-72
2022/04/16 04:19:24;;;;;;;37.08;22.73;;;;;;;;;;5071423;28;20094;-72
2022/04/16 04:21:50;;;;;;;41.70;22.92;;;;;;;;;;5071386;28;20041;-73
2022/04/16 04:24:16;;;;;;;45.38;22.00;;;;;;;;;;5070262;28;20060;-72
2022/04/16 04:26:42;;;;;;;37.13;22.35;;;;;;;;;;5054705;28;20438;-74
2022/04/16 04:29:08;;;;;;;40.67;22.30;;;;;;;;;;5071440;28;20045;-73
2022/04/16 04:31:34;;;;;;;34.45;20.92;;;;;;;;;;5071350;28;20094;-73
2022/04/16 04:34:00;;;;;;;34.90;21.00;;;;;;;;;;5072569;28;20044;-72
2022/04/16 04:36:26;;;;;;;34.50;21.77;;;;;;;;;;5038392;28;20101;-74
2022/04/16 04:38:52;;;;;;;37.58;21.63;;;;;;;;;;5053507;28;20056;-73
2022/04/16 04:41:18;;;;;;;36.90;21.70;;;;;;;;;;5054303;28;20067;-72
2022/04/16 04:43:44;;;;;;;36.45;21.15;;;;;;;;;;5055858;28;20129;-75
2022/04/16 04:46:10;;;;;;;43.70;24.20;;;;;;;;;;5092674;28;20218;-72
2022/04/16 04:48:36;;;;;;;42.50;23.45;;;;;;;;;;5054846;28;20060;-72
2022/04/16 04:51:02;;;;;;;37.22;21.55;;;;;;;;;;5052395;28;20049;-73
2022/04/16 04:53:28;;;;;;;38.58;21.48;;;;;;;;;;5051041;28;20064;-72
2022/04/16 04:55:54;;;;;;;38.50;23.73;;;;;;;;;;5051711;28;20052;-73
2022/04/16 04:58:20;;;;;;;41.78;23.48;;;;;;;;;;5047464;28;20102;-73
2022/04/16 05:00:46;;;;;;;35.65;20.52;;;;;;;;;;5025777;28;20111;-72
2022/04/16 05:03:12;;;;;;;32.03;20.20;;;;;;;;;;5034967;28;20480;-73
2022/04/16 05:05:38;;;;;;;37.40;21.77;;;;;;;;;;5037499;28;20056;-74
2022/04/16 05:08:04;;;;;;;40.50;22.85;;;;;;;;;;5063800;28;20516;-74
2022/04/16 05:10:30;;;;;;;35.75;19.77;;;;;;;;;;5055848;28;20033;-60
2022/04/16 05:12:57;;;;;;;45.30;23.05;;;;;;;;;;5064354;28;20473;-71
2022/04/16 05:15:23;;;;;;;39.53;23.05;;;;;;;;;;5019034;28;20131;-70
2022/04/16 05:17:49;;;;;;;35.97;21.98;;;;;;;;;;5037469;28;20115;-71
2022/04/16 05:20:16;;;;;;;40.67;23.08;;;;;;;;;;5036835;28;20047;-70
2022/04/16 05:22:42;;;;;;;41.80;23.63;;;;;;;;;;5055720;28;20048;-69
2022/04/16 05:25:08;;;;;;;40.67;24.23;;;;;;;;;;5038131;28;20120;-68
2022/04/16 05:27:35;;;;;;;37.80;23.67;;;;;;;;;;5037651;28;20051;-66
2022/04/16 05:30:07;;;;;;;43.22;24.05;;;;;;;;;;5036895;28;20037;-64
2022/04/16 05:32:36;;;;;;;40.35;22.63;;;;;;;;;;5039149;28;20037;-63
2022/04/16 05:35:06;;;;;;;37.10;23.10;;;;;;;;;;5053938;28;20041;-69
2022/04/16 05:37:32;;;;;;;40.40;22.10;;;;;;;;;;5055544;28;20562;-67
2022/04/16 05:39:58;;;;;;;36.50;21.45;;;;;;;;;;5036497;28;20082;-66
2022/04/16 05:42:24;;;;;;;38.22;21.95;;;;;;;;;;5037671;28;20048;-67
2022/04/16 05:44:50;;;;;;;35.67;20.80;;;;;;;;;;5054619;28;20048;-65
2022/04/16 05:47:16;;;;;;;32.67;20.42;;;;;;;;;;5059253;28;20057;-63
2022/04/16 05:49:42;;;;;;;32.72;19.67;;;;;;;;;;5040315;28;20044;-64
2022/04/16 05:52:09;;;;;;;32.70;20.17;;;;;;;;;;5075122;28;20101;-66
2022/04/16 05:54:38;;;;;;;35.05;21.58;;;;;;;;;;5055312;28;20041;-67
2022/04/16 05:57:05;;;;;;;33.35;21.75;;;;;;;;;;5038590;28;20078;-66
2022/04/16 05:59:31;;;;;;;32.75;20.45;;;;;;;;;;5055180;28;20084;-68
2022/04/16 06:01:57;;;;;;;32.08;19.83;;;;;;;;;;5036576;28;20048;-69
2022/04/16 06:04:23;;;;;;;31.55;19.50;;;;;;;;;;5039604;28;20083;-67
2022/04/16 06:06:49;;;;;;;34.10;20.88;;;;;;;;;;5073122;28;20067;-69
2022/04/16 06:09:15;;;;;;;32.15;20.92;;;;;;;;;;5073489;28;20056;-67
2022/04/16 06:11:46;;;;;;;33.05;20.63;;;;;;;;;;5057154;28;20037;-68
2022/04/16 06:14:12;;;;;;;33.65;19.80;;;;;;;;;;5074964;28;20392;-62
2022/04/16 06:16:38;;;;;;;31.05;20.23;;;;;;;;;;5073361;28;20048;-66
2022/04/16 06:19:04;;;;;;;31.42;19.08;;;;;;;;;;5056598;28;20581;-65
2022/04/16 06:21:30;;;;;;;30.20;18.85;;;;;;;;;;5099247;22;20135;-65
2022/04/16 06:23:57;;;;;;;29.15;18.45;;;;;;;;;;5093904;28;20193;-65
2022/04/16 06:26:24;;;;;;;32.55;19.05;;;;;;;;;;5059663;28;20044;-67
2022/04/16 06:28:50;;;;;;;28.08;18.02;;;;;;;;;;5060052;28;20407;-67
2022/04/16 06:31:16;;;;;;;25.50;16.02;;;;;;;;;;5075287;28;20074;-64
2022/04/16 06:33:42;;;;;;;24.20;14.43;;;;;;;;;;5093144;28;20131;-64
2022/04/16 06:36:08;;;;;;;23.77;15.35;;;;;;;;;;5074747;28;20069;-64
2022/04/16 06:38:34;;;;;;;27.45;15.23;;;;;;;;;;5058227;28;20056;-61
2022/04/16 06:41:00;;;;;;;25.45;14.13;;;;;;;;;;5093583;28;20043;-60
2022/04/16 06:43:26;;;;;;;22.80;13.95;;;;;;;;;;5076545;28;20442;-63
2022/04/16 06:45:52;;;;;;;24.38;14.48;;;;;;;;;;5076079;28;20052;-65
2022/04/16 06:48:19;;;;;;;22.75;11.57;;;;;;;;;;5057740;28;20040;-63
2022/04/16 06:50:45;;;;;;;22.95;13.98;;;;;;;;;;5094160;28;20118;-61
2022/04/16 06:53:11;;;;;;;20.17;12.55;;;;;;;;;;5076305;28;20075;-63
2022/04/16 06:55:37;;;;;;;23.38;13.82;;;;;;;;;;5075756;28;20079;-63
2022/04/16 06:58:03;;;;;;;23.80;12.07;;;;;;;;;;5092888;28;20047;-68
2022/04/16 07:00:30;;;;;;;19.98;13.02;;;;;;;;;;5094257;28;20499;-63
2022/04/16 07:02:56;;;;;;;20.08;12.25;;;;;;;;;;5075446;28;20146;-65
2022/04/16 07:05:22;;;;;;;21.10;11.70;;;;;;;;;;5075199;28;20048;-62
2022/04/16 07:07:48;;;;;;;20.67;12.38;;;;;;;;;;5073403;28;20131;-63
2022/04/16 07:10:14;;;;;;;19.05;11.02;;;;;;;;;;5075103;28;20050;-65
2022/04/16 07:12:40;;;;;;;19.15;11.30;;;;;;;;;;5059434;28;20047;-68
2022/04/16 07:15:06;;;;;;;19.25;11.07;;;;;;;;;;5075373;28;20048;-67
2022/04/16 07:17:32;;;;;;;16.30;10.52;;;;;;;;;;5091294;28;20048;-61
2022/04/16 07:19:58;;;;;;;20.58;12.20;;;;;;;;;;5058610;28;20445;-63
2022/04/16 07:22:24;;;;;;;17.90;11.20;;;;;;;;;;5074625;28;20052;-62
2022/04/16 07:24:51;;;;;;;17.17;11.23;;;;;;;;;;5094549;28;20492;-64
2022/04/16 07:27:17;;;;;;;17.08;10.20;;;;;;;;;;5074197;28;20044;-66
2022/04/16 07:29:43;;;;;;;20.02;11.50;;;;;;;;;;5074446;28;20044;-64
2022/04/16 07:32:09;;;;;;;19.95;11.85;;;;;;;;;;5075006;28;20040;-66
2022/04/16 07:34:35;;;;;;;14.60;10.00;;;;;;;;;;5042399;28;20044;-67
2022/04/16 07:37:01;;;;;;;17.17;10.45;;;;;;;;;;5091295;28;20055;-63
2022/04/16 07:39:27;;;;;;;18.77;10.35;;;;;;;;;;5073393;28;20044;-62
2022/04/16 07:41:53;;;;;;;16.83;10.65;;;;;;;;;;5092993;28;20564;-63
2022/04/16 07:44:19;;;;;;;19.05;11.77;;;;;;;;;;5058533;28;20048;-59
2022/04/16 07:46:45;;;;;;;16.92;10.05;;;;;;;;;;5090644;28;20040;-61
2022/04/16 07:49:11;;;;;;;17.48;9.85;;;;;;;;;;5091823;28;20052;-61
2022/04/16 07:51:37;;;;;;;17.73;10.90;;;;;;;;;;5074765;28;20036;-63
2022/04/16 07:54:03;;;;;;;17.15;10.68;;;;;;;;;;5075049;28;20040;-62
2022/04/16 07:56:29;;;;;;;18.17;10.48;;;;;;;;;;5073140;28;20092;-59
2022/04/16 07:58:56;;;;;;;19.75;10.25;;;;;;;;;;5074313;28;20059;-64
2022/04/16 08:01:22;;;;;;;18.27;11.07;;;;;;;;;;5074920;28;20051;-67
2022/04/16 08:03:48;;;;;;;19.40;9.75;;;;;;;;;;5075257;28;20043;-66
2022/04/16 08:06:14;;;;;;;17.02;10.75;;;;;;;;;;5075494;28;20176;-65
2022/04/16 08:08:40;;;;;;;17.67;9.60;;;;;;;;;;5073615;28;20463;-68
2022/04/16 08:11:06;;;;;;;17.48;10.50;;;;;;;;;;5074205;28;20040;-58
2022/04/16 08:13:32;;;;;;;16.95;10.57;;;;;;;;;;5092217;28;20054;-64
2022/04/16 08:15:58;;;;;;;16.05;10.10;;;;;;;;;;5074578;28;20123;-63
2022/04/16 08:18:24;;;;;;;15.00;9.70;;;;;;;;;;5088827;28;20050;-63
2022/04/16 08:20:50;;;;;;;16.50;9.45;;;;;;;;;;5073087;28;20047;-62
2022/04/16 08:23:17;;;;;;;16.08;9.23;;;;;;;;;;5084760;28;20051;-60
2022/04/16 08:28:09;;;;;;;13.00;8.43;;;;;;;;;;5073462;28;20054;-64
2022/04/16 08:30:35;;;;;;;15.45;9.13;;;;;;;;;;5056985;28;20119;-59
2022/04/16 08:33:01;;;;;;;16.33;10.00;;;;;;;;;;5074118;28;20052;-61
2022/04/16 08:35:27;;;;;;;13.57;8.98;;;;;;;;;;5072050;28;22166;-60
2022/04/16 08:37:53;;;;;;;15.48;8.88;;;;;;;;;;5089588;28;20490;-64
2022/04/16 08:40:20;;;;;;;18.33;8.07;;;;;;;;;;5094124;28;20077;-63
2022/04/16 08:42:51;;;;;;;13.38;8.57;;;;;;;;;;5096308;28;20040;-62
2022/04/16 08:45:17;;;;;;;13.88;8.70;;;;;;;;;;5095937;28;20044;-64
2022/04/16 08:47:44;;;;;;;17.00;8.50;;;;;;;;;;5092961;28;20044;-58
2022/04/16 08:50:11;;;;;;;14.13;8.50;;;;;;;;;;5059130;28;20542;-61
2022/04/16 08:52:38;;;;;;;13.63;8.15;;;;;;;;;;5078328;28;20079;-60
2022/04/16 08:55:06;;;;;;;13.75;7.53;;;;;;;;;;5095485;28;20036;-61
2022/04/16 08:57:32;;;;;;;12.70;8.13;;;;;;;;;;5060371;28;20407;-58
2022/04/16 08:59:58;;;;;;;15.35;8.50;;;;;;;;;;5076653;28;20122;-57
2022/04/16 09:02:26;;;;;;;12.25;8.70;;;;;;;;;;5094740;28;20040;-57
2022/04/16 09:05:03;;;;;;;20.00;12.30;;;;;;;;;;5061410;28;20134;-56
2022/04/16 09:07:30;;;;;;;14.73;10.25;;;;;;;;;;5060443;28;20140;-57
2022/04/16 09:10:05;;;;;;;13.65;7.70;;;;;;;;;;5077134;28;20047;-57
2022/04/16 09:12:35;;;;;;;12.15;8.18;;;;;;;;;;5096250;28;20047;-57
2022/04/16 09:15:06;;;;;;;15.63;8.20;;;;;;;;;;5078343;28;20094;-57
2022/04/16 09:17:32;;;;;;;16.30;8.55;;;;;;;;;;5060430;28;20196;-57
2022/04/16 09:19:58;;;;;;;10.52;7.28;;;;;;;;;;5075955;28;20036;-57
2022/04/16 09:22:31;;;;;;;10.85;7.20;;;;;;;;;;5094662;28;20052;-57
2022/04/16 09:24:58;;;;;;;12.88;7.88;;;;;;;;;;5061509;28;20395;-57
2022/04/16 09:27:24;;;;;;;10.48;7.18;;;;;;;;;;5094971;28;20044;-57
2022/04/16 09:29:50;;;;;;;12.38;6.90;;;;;;;;;;5077181;28;20125;-57
2022/04/16 09:32:23;;;;;;;10.60;6.57;;;;;;;;;;5095845;28;20090;-58
2022/04/16 09:34:49;;;;;;;11.40;7.35;;;;;;;;;;5078305;28;20140;-57
2022/04/16 09:37:15;;;;;;;16.92;6.70;;;;;;;;;;5060233;28;20041;-57
2022/04/16 09:39:41;;;;;;;9.25;6.38;;;;;;;;;;5076693;28;20131;-58
2022/04/16 09:42:07;;;;;;;11.23;7.03;;;;;;;;;;5094460;28;20044;-60
2022/04/16 09:44:33;;;;;;;12.02;6.53;;;;;;;;;;5061070;28;20056;-60
2022/04/16 09:46:59;;;;;;;10.93;6.13;;;;;;;;;;5093738;28;20129;-61
2022/04/16 09:49:25;;;;;;;10.05;6.25;;;;;;;;;;5094771;28;20048;-60
2022/04/16 09:51:52;;;;;;;9.80;5.18;;;;;;;;;;5076131;28;19928;-59
2022/04/16 09:54:18;;;;;;;9.10;5.68;;;;;;;;;;5095236;28;20048;-60
2022/04/16 09:56:46;;;;;;;8.00;4.50;;;;;;;;;;5076233;28;20127;-65
2022/04/16 09:59:13;;;;;;;7.55;4.50;;;;;;;;;;5077548;28;20234;-61
2022/04/16 10:01:47;;;;;;;5.90;3.88;;;;;;;;;;5076839;28;20044;-62
2022/04/16 10:04:20;;;;;;;6.35;4.07;;;;;;;;;;5077039;28;20064;-63
2022/04/16 10:06:46;;;;;;;6.70;4.43;;;;;;;;;;5059730;28;20098;-62
2022/04/16 10:09:14;;;;;;;5.72;3.50;;;14.90;99.90;;;;;;5077133;28;20051;-67
2022/04/16 10:14:34;;;;;;;6.25;3.88;;;;;;;;;;5093809;28;20416;-62
2022/04/16 10:17:00;;;;;;;6.10;3.90;;;;;;;;;;5047882;28;20060;-61
2022/04/16 10:19:36;;;;;;;6.60;3.58;;;;;;;;;;5092806;28;20040;-61
2022/04/16 10:22:03;;;;;;;4.13;2.92;;;;;;;;;;5076480;28;20063;-61
2022/04/16 10:24:29;;;;;;;5.88;3.45;;;;;;;;;;5075115;28;20096;-61
2022/04/16 10:27:03;;;;;;;6.60;2.97;;;;;;;;;;5075878;28;20036;-60
2022/04/16 10:29:34;;;;;;;4.72;2.65;;;;;;;;;;5076880;28;20055;-63
2022/04/16 10:32:00;;;;;;;5.75;3.35;;;;;;;;;;5074600;28;20056;-56
2022/04/16 10:34:30;;;;;;;5.75;3.25;;;;;;;;;;5059721;28;20074;-57
2022/04/16 10:36:56;;;;;;;4.72;3.08;;;;;;;;;;5076375;28;20495;-57
2022/04/16 10:39:27;;;;;;;5.95;2.80;;;;;;;;;;5094313;28;20403;-57
2022/04/16 10:41:57;;;;;;;5.78;2.80;;;;;;;;;;5093565;28;20044;-58
2022/04/16 10:44:24;;;;;;;5.18;2.55;;;;;;;;;;5059062;28;20131;-59
2022/04/16 10:46:50;;;;;;;3.90;2.47;;;;;;;;;;5076461;28;20094;-60
2022/04/16 10:49:20;;;;;;;4.75;2.33;;;;;;;;;;5076641;28;20048;-60
2022/04/16 10:51:46;;;;;;;7.68;3.53;;;;;;;;;;5093437;28;20403;-58
2022/04/16 10:54:13;;;;;;;6.75;2.15;;;;;;;;;;5093778;28;20044;-57
2022/04/16 10:56:40;;;;;;;3.92;1.55;;;;;;;;;;5076075;28;20040;-57
2022/04/16 10:59:08;;;;;;;3.50;1.73;;;;;;;;;;5059758;28;20055;-58
2022/04/16 11:01:34;;;;;;;4.35;1.77;;;;;;;;;;5057995;28;20541;-57
2022/04/16 11:04:11;;;;;;;5.57;2.85;;;;;;;;;;5090639;28;20068;-58
2022/04/16 11:06:37;;;;;;;3.63;2.10;;;;;;;;;;5072709;28;20042;-58
2022/04/16 11:09:04;;;;;;;5.60;2.10;;;;;;;;;;5072484;28;20036;-57
2022/04/16 11:11:30;;;;;;;3.78;1.90;;;;;;;;;;5058664;28;20040;-58
2022/04/16 11:13:57;;;;;;;4.25;1.90;;;;;;;;;;5092826;28;20048;-59
2022/04/16 11:16:23;;;;;;;2.88;1.60;;;;;;;;;;5075671;28;20047;-57
2022/04/16 11:18:50;;;;;;;3.83;1.73;;;;;;;;;;5092497;28;20046;-57
2022/04/16 11:21:23;;;;;;;3.05;1.60;;;;;;;;;;5092694;28;20495;-57
2022/04/16 11:23:51;;;;;;;3.60;1.65;;;;;;;;;;5093689;28;20509;-57
2022/04/16 11:34:51;;;;;;;4.13;2.13;;;;;;;;;;5093280;28;20087;-57
2022/04/16 11:37:17;;;;;;;3.88;1.80;;;;;;;;;;5074100;28;20060;-58
2022/04/16 11:39:46;;;;;;;3.50;1.73;;;;;;;;;;5092939;28;20119;-57
2022/04/16 11:48:04;;;;;;;3.10;1.75;;;;;;;;;;5103746;22;20062;-58
2022/04/16 11:50:30;;;;;;;2.75;1.20;;;;;;;;;;5051577;28;20072;-58
2022/04/16 11:52:57;;;;;;;3.13;1.10;;;;;;;;;;5033464;28;20048;-57
2022/04/16 11:55:23;;;;;;;2.28;1.33;;;;;;;;;;5024550;28;20048;-57
2022/04/16 11:57:53;;;;;;;2.95;1.42;;;;;;;;;;5054385;28;20048;-59
2022/04/16 12:00:20;;;;;;;2.42;1.38;;;;;;;;;;5068500;28;20499;-56
2022/04/16 12:02:49;;;;;;;2.13;1.08;;;;;;;;;;5054388;28;20381;-57
2022/04/16 12:05:16;;;;;;;2.38;1.27;;;;;;;;;;5071046;28;20541;-58
2022/04/16 12:07:48;;;;;;;2.60;1.10;;;;;;;;;;5072772;28;20052;-57
2022/04/16 12:10:16;;;;;;;2.03;1.02;;;;;;;;;;5060992;28;20071;-57
2022/04/16 12:12:49;;;;;;;2.85;0.98;;;;;;;;;;5035631;28;20055;-57
2022/04/16 12:15:25;;;;;;;3.70;1.02;;;;;;;;;;5072420;28;20500;-57
2022/04/16 12:17:57;;;;;;;3.78;0.80;;;;;;;;;;5054511;28;20040;-57
2022/04/16 12:20:24;;;;;;;1.63;0.77;;;;;;;;;;5032515;28;20049;-57
2022/04/16 12:22:52;;;;;;;2.13;0.82;;;;;;;;;;5070948;28;20406;-58
2022/04/16 12:25:22;;;;;;;1.80;0.70;;;;;;;;;;5036730;28;20076;-57
2022/04/16 12:27:52;;;;;;;4.05;0.80;;;;;;;;;;5054602;28;20056;-58
2022/04/16 12:30:19;;;;;;;3.70;1.00;;;;;;;;;;5053512;28;20036;-57
2022/04/16 12:38:56;;;;;;;2.20;0.70;;;;;;;;;;5125214;22;20071;-59
2022/04/16 12:41:22;;;;;;;3.83;0.80;;;;;;;;;;5068538;28;20495;-60
2022/04/16 12:43:48;;;;;;;2.03;0.75;;;;;;;;;;5092377;28;20044;-56
2022/04/16 12:46:14;;;;;;;1.48;0.80;;;;;;;;;;5091063;28;20047;-56
2022/04/16 12:48:40;;;;;;;1.33;0.70;;;;;;;;;;5091548;28;20109;-58
2022/04/16 12:51:06;;;;;;;4.80;0.70;;;;;;;;;;5084320;28;20055;-57
2022/04/16 12:53:32;;;;;;;0.95;0.60;;;;;;;;;;5078007;28;20090;-63
2022/04/16 12:56:00;;;;;;;2.88;0.80;;;;;;;;;;5076330;28;20043;-62
2022/04/16 12:58:28;;;;;;;1.40;0.80;;;;;;;;;;5102758;28;20507;-61
2022/04/16 13:00:56;;;;;;;1.60;0.75;;;;;;;;;;5054198;28;20044;-61
2022/04/16 13:03:25;;;;;;;2.50;0.80;;;;;;;;;;5037615;28;20502;-62
2022/04/16 13:05:53;;;;;;;2.05;0.70;;;;;;;;;;5054231;28;20127;-61
2022/04/16 13:08:25;;;;;;;2.47;0.70;;;;;;;;;;5057230;28;20135;-62
2022/04/16 13:10:54;;;;;;;2.45;1.02;;;;;;;;;;5073613;28;20515;-61
2022/04/16 13:13:20;;;;;;;1.13;0.75;;;;;;;;;;5092232;28;20048;-61
2022/04/16 13:15:51;;;;;;;2.22;0.80;;;;;;;;;;5072574;28;20048;-61
2022/04/16 13:18:19;;;;;;;1.55;0.73;;;;;;;;;;5091267;28;20063;-61
2022/04/16 13:20:48;;;;;;;2.03;0.70;;;;;;;;;;5074067;28;20438;-61
2022/04/16 13:23:17;;;;;;;6.63;0.80;;;;;;;;;;5092170;28;20048;-61
2022/04/16 13:25:47;;;;;;;2.22;0.90;;;;;;;;;;5058476;28;20043;-62
2022/04/16 13:28:13;;;;;;;3.80;0.85;;;;;;;;;;5076581;28;20048;-62
2022/04/16 13:30:42;;;;;;;2.33;0.90;;;;;;;;;;5095841;28;20036;-61
2022/04/16 13:33:11;;;;;;;2.72;1.20;;;;;;;;;;5095882;28;20052;-62
2022/04/16 13:35:39;;;;;;;2.45;1.00;;;;;;;;;;5060972;28;20115;-62
2022/04/16 13:38:10;;;;;;;2.17;1.08;;;;;;;;;;5067865;28;20503;-61
2022/04/16 13:43:23;;;;;;;1.10;0.75;;;;;;;;;;5086932;28;20078;-62
2022/04/16 13:45:52;;;;;;;2.97;0.82;;;;;;;;;;5065685;28;20075;-58
2022/04/16 13:48:18;;;;;;;3.45;0.98;;;;;;;;;;5075730;28;20063;-58
2022/04/16 13:50:47;;;;;;;2.83;1.00;;;;;;;;;;5077351;28;20047;-59
2022/04/16 13:53:13;;;;;;;2.17;1.10;;;;;;;;;;5077526;28;20051;-58
2022/04/16 13:55:41;;;;;;;2.78;1.10;;;;;;;;;;5092179;28;20048;-59
2022/04/16 13:58:09;;;;;;;1.85;0.80;;;;;;;;;;5092500;28;20097;-59
2022/04/16 14:00:38;;;;;;;2.25;0.88;;;;;;;;;;5094357;28;20063;-59
2022/04/16 14:03:07;;;;;;;2.55;0.90;;;;;;;;;;5081024;28;20051;-60
2022/04/16 14:05:45;;;;;;;3.03;0.90;;;;;;;;;;5083120;28;20131;-57
2022/04/16 14:08:14;;;;;;;5.70;1.02;;;;;;;;;;5094470;28;20044;-55
2022/04/16 14:10:41;;;;;;;1.88;0.73;;;;;;;;;;5061830;28;20117;-58
2022/04/16 14:13:08;;;;;;;2.10;0.90;;;;;;;;;;5070232;28;20461;-62
2022/04/16 14:15:35;;;;;;;1.17;0.80;;;;;;;;;;5076218;28;20403;-59
2022/04/16 14:18:01;;;;;;;1.45;0.85;;;;;;;;;;5080266;28;20105;-59
2022/04/16 14:20:27;;;;;;;6.00;0.85;;;;;;;;;;5059256;28;20050;-56
2022/04/16 14:22:54;;;;;;;1.90;0.82;;;;;;;;;;5074714;28;20483;-64
2022/04/16 14:25:21;;;;;;;1.85;0.85;;;;;;;;;;5094165;28;20507;-63
2022/04/16 14:27:50;;;;;;;2.88;0.70;;;;;;;;;;5073674;28;20098;-64
2022/04/16 14:30:21;;;;;;;2.92;1.17;;;;;;;;;;5093165;28;20457;-63
2022/04/16 14:32:50;;;;;;;3.80;1.10;;;;;;;;;;5086883;28;20070;-63
2022/04/16 14:35:16;;;;;;;2.15;1.10;;;;;;;;;;5053648;28;20610;-62
2022/04/16 14:37:48;;;;;;;1.63;0.77;;;;;;;;;;5091150;28;20044;-62
2022/04/16 14:40:16;;;;;;;2.13;1.05;;;;;;;;;;5093246;28;20052;-63
2022/04/16 14:42:47;;;;;;;2.05;0.85;;;;;;;;;;5073428;28;20071;-62
2022/04/16 14:45:16;;;;;;;2.92;0.90;;;;;;;;;;5089357;28;20040;-63
2022/04/16 14:47:44;;;;;;;2.88;1.00;;;;;;;;;;5075761;28;20044;-62
2022/04/16 14:50:18;;;;;;;2.60;0.90;;;;;;;;;;5073138;28;20084;-63
2022/04/16 14:52:49;;;;;;;2.40;0.93;;;;;;;;;;5059270;28;20116;-63
2022/04/16 14:55:16;;;;;;;3.05;1.05;;;;;;;;;;5055278;28;20051;-63
2022/04/16 14:57:42;;;;;;;2.35;1.15;;;;;;;;;;5076124;28;20048;-63
2022/04/16 15:00:11;;;;;;;3.47;0.82;;;;;;;;;;5056660;28;20074;-63
2022/04/16 15:02:43;;;;;;;2.60;0.98;;;;;;;;;;5087751;28;20080;-64
2022/04/16 15:05:10;;;;;;;1.42;0.95;;;;;;;;;;5092351;28;20499;-65
2022/04/16 15:07:36;;;;;;;3.63;1.00;;;;;;;;;;5059758;28;20058;-63
2022/04/16 15:10:03;;;;;;;1.65;0.75;;;;;;;;;;5060444;28;20048;-63
2022/04/16 15:12:31;;;;;;;3.05;0.80;;;;;;;;;;5091708;28;20055;-63